createdAt,value
2022-11-25T00:01:07.777Z,4.13
2022-11-25T00:03:36.404Z,4.19
2022-11-25T00:06:13.058Z,4.09
2022-11-25T00:08:41.783Z,4.03
2022-11-25T00:11:11.255Z,4.18
2022-11-25T00:13:41.432Z,4.25
2022-11-25T00:16:11.435Z,4.22
2022-11-25T00:18:40.074Z,4.14
2022-11-25T00:21:09.524Z,4.12
2022-11-25T00:23:38.213Z,3.98
2022-11-25T00:26:10.406Z,3.95
2022-11-25T00:28:40.408Z,4.00
2022-11-25T00:31:12.235Z,3.93
2022-11-25T00:33:40.494Z,3.99
2022-11-25T00:36:15.024Z,4.07
2022-11-25T00:38:43.112Z,4.15
2022-11-25T00:41:28.953Z,4.14
2022-11-25T00:44:15.642Z,4.25
2022-11-25T00:46:44.119Z,4.25
2022-11-25T00:49:11.862Z,4.22
2022-11-25T00:51:39.643Z,4.22
2022-11-25T00:54:07.773Z,4.14
2022-11-25T00:56:35.546Z,4.10
2022-11-25T00:59:04.917Z,4.19
2022-11-25T01:01:33.038Z,4.15
2022-11-25T01:04:03.134Z,4.15
2022-11-25T01:06:31.024Z,4.09
2022-11-25T01:08:58.732Z,4.12
2022-11-25T01:11:26.666Z,4.17
2022-11-25T01:14:00.951Z,4.16
2022-11-25T01:16:31.523Z,4.08
2022-11-25T01:19:00.551Z,3.99
2022-11-25T01:21:31.229Z,3.92
2022-11-25T01:24:01.097Z,3.89
2022-11-25T01:26:30.005Z,3.90
2022-11-25T01:29:00.339Z,3.90
2022-11-25T01:31:31.758Z,3.89
2022-11-25T01:34:00.986Z,3.90
2022-11-25T01:36:29.468Z,3.95
2022-11-25T01:38:58.687Z,4.00
2022-11-25T01:41:28.713Z,4.02
2022-11-25T01:44:08.761Z,3.99
2022-11-25T01:46:49.778Z,3.94
2022-11-25T01:49:20.808Z,3.96
2022-11-25T01:51:54.462Z,3.95
2022-11-25T01:54:27.169Z,3.99
2022-11-25T01:57:00.151Z,3.97
2022-11-25T01:59:30.510Z,3.98
2022-11-25T02:02:00.294Z,4.05
2022-11-25T02:04:33.703Z,4.15
2022-11-25T02:07:10.680Z,4.16
2022-11-25T02:09:42.182Z,4.14
2022-11-25T02:12:10.940Z,4.07
2022-11-25T02:14:39.020Z,4.03
2022-11-25T02:17:08.169Z,4.02
2022-11-25T02:19:50.834Z,4.07
2022-11-25T02:22:24.973Z,4.15
2022-11-25T02:24:57.609Z,4.21
2022-11-25T02:27:26.710Z,4.34
2022-11-25T02:29:55.302Z,4.38
2022-11-25T02:32:23.903Z,4.35
2022-11-25T02:34:51.925Z,4.36
2022-11-25T02:37:23.590Z,4.35
2022-11-25T02:39:53.498Z,4.37
2022-11-25T02:42:23.877Z,4.42
2022-11-25T02:44:53.253Z,4.46
2022-11-25T02:47:21.504Z,4.40
2022-11-25T02:49:49.177Z,4.39
2022-11-25T02:52:16.829Z,4.37
2022-11-25T02:54:44.584Z,4.39
2022-11-25T02:57:12.393Z,4.36
2022-11-25T02:59:40.081Z,4.36
2022-11-25T03:02:10.307Z,4.29
2022-11-25T03:04:38.813Z,4.24
2022-11-25T03:07:06.735Z,4.23
2022-11-25T03:09:34.420Z,4.29
2022-11-25T03:12:21.155Z,4.24
2022-11-25T03:14:53.821Z,4.20
2022-11-25T03:17:23.163Z,4.09
2022-11-25T03:19:50.877Z,4.05
2022-11-25T03:22:18.470Z,4.01
2022-11-25T03:24:46.179Z,3.96
2022-11-25T03:27:13.906Z,3.97
2022-11-25T03:29:42.485Z,3.92
2022-11-25T03:32:10.425Z,3.90
2022-11-25T03:34:40.568Z,4.05
2022-11-25T03:37:09.294Z,4.05
2022-11-25T03:39:38.185Z,4.14
2022-11-25T03:42:07.825Z,4.25
2022-11-25T03:44:35.735Z,4.33
2022-11-25T03:47:03.818Z,4.33
2022-11-25T03:49:31.812Z,4.38
2022-11-25T03:52:01.758Z,4.40
2022-11-25T03:54:29.764Z,4.49
2022-11-25T03:57:18.389Z,4.56
2022-11-25T03:59:46.140Z,4.59
2022-11-25T04:02:15.373Z,4.57
2022-11-25T04:04:43.442Z,4.55
2022-11-25T04:07:12.628Z,4.58
2022-11-25T04:09:41.534Z,4.61
2022-11-25T04:12:28.171Z,4.59
2022-11-25T04:15:06.037Z,4.61
2022-11-25T04:17:34.038Z,4.69
2022-11-25T04:20:02.150Z,4.77
2022-11-25T04:22:32.242Z,4.78
2022-11-25T04:25:01.764Z,4.85
2022-11-25T04:27:30.367Z,4.88
2022-11-25T04:29:58.565Z,4.88
2022-11-25T04:32:27.449Z,4.91
2022-11-25T04:34:55.337Z,5.02
2022-11-25T04:37:23.772Z,4.96
2022-11-25T04:39:53.292Z,4.89
2022-11-25T04:42:34.511Z,4.89
2022-11-25T04:45:22.404Z,4.83
2022-11-25T04:47:51.222Z,4.78
2022-11-25T04:50:22.357Z,4.68
2022-11-25T04:53:00.296Z,4.56
2022-11-25T04:55:30.017Z,4.41
2022-11-25T04:57:59.413Z,4.40
2022-11-25T05:00:26.612Z,4.43
2022-11-25T05:02:54.756Z,4.42
2022-11-25T05:05:24.486Z,4.45
2022-11-25T05:07:52.359Z,4.45
2022-11-25T05:10:22.066Z,4.54
2022-11-25T05:12:52.771Z,4.65
2022-11-25T05:15:23.160Z,4.67
2022-11-25T05:17:50.889Z,4.65
2022-11-25T05:20:28.951Z,4.59
2022-11-25T05:22:57.091Z,4.64
2022-11-25T05:25:26.680Z,4.70
2022-11-25T05:28:15.946Z,4.66
2022-11-25T05:30:45.347Z,4.71
2022-11-25T05:33:13.648Z,4.75
2022-11-25T05:35:41.681Z,4.73
2022-11-25T05:38:10.224Z,4.72
2022-11-25T05:40:38.817Z,4.83
2022-11-25T05:43:11.648Z,4.92
2022-11-25T05:45:42.588Z,4.94
2022-11-25T05:48:12.223Z,5.01
2022-11-25T05:50:40.168Z,5.02
2022-11-25T05:53:18.219Z,5.01
2022-11-25T05:55:56.193Z,5.07
2022-11-25T05:58:41.815Z,5.06
2022-11-25T06:01:14.102Z,5.07
2022-11-25T06:03:42.566Z,5.06
2022-11-25T06:06:11.896Z,4.94
2022-11-25T06:08:40.345Z,4.94
2022-11-25T06:11:11.772Z,4.90
2022-11-25T06:13:39.684Z,4.90
2022-11-25T06:16:08.677Z,4.95
2022-11-25T06:18:38.482Z,4.92
2022-11-25T06:21:10.210Z,4.99
2022-11-25T06:23:39.140Z,5.06
2022-11-25T06:26:08.939Z,5.09
2022-11-25T06:28:37.524Z,5.05
2022-11-25T06:31:07.617Z,5.00
2022-11-25T06:33:42.549Z,4.98
2022-11-25T06:36:16.978Z,4.99
2022-11-25T06:38:45.330Z,5.01
2022-11-25T06:41:13.572Z,5.06
2022-11-25T06:43:41.525Z,5.02
2022-11-25T06:46:10.909Z,5.01
2022-11-25T06:48:39.318Z,5.06
2022-11-25T06:51:11.031Z,5.09
2022-11-25T06:53:39.609Z,5.11
2022-11-25T06:56:10.225Z,5.12
2022-11-25T06:58:38.946Z,5.12
2022-11-25T07:01:08.975Z,5.13
2022-11-25T07:03:36.997Z,5.17
2022-11-25T07:06:05.122Z,5.21
2022-11-25T07:08:34.994Z,5.18
2022-11-25T07:11:07.710Z,5.19
2022-11-25T07:13:35.601Z,5.18
2022-11-25T07:16:04.492Z,5.19
2022-11-25T07:18:33.723Z,5.18
2022-11-25T07:21:07.022Z,5.21
2022-11-25T07:23:37.089Z,5.19
2022-11-25T07:26:06.447Z,5.20
2022-11-25T07:28:34.827Z,5.19
2022-11-25T07:31:23.422Z,5.17
2022-11-25T07:33:57.293Z,5.22
2022-11-25T07:36:25.310Z,5.21
2022-11-25T07:38:54.857Z,5.22
2022-11-25T07:41:24.541Z,5.30
2022-11-25T07:43:54.085Z,5.28
2022-11-25T07:46:27.366Z,5.28
2022-11-25T07:48:57.347Z,5.32
2022-11-25T07:51:27.455Z,5.33
2022-11-25T07:53:57.803Z,5.35
2022-11-25T07:56:25.908Z,5.38
2022-11-25T07:58:53.795Z,5.41
2022-11-25T08:01:21.714Z,5.43
2022-11-25T08:03:51.201Z,5.43
2022-11-25T08:06:21.233Z,5.46
2022-11-25T08:08:49.253Z,5.46
2022-11-25T08:11:20.858Z,5.49
2022-11-25T08:13:49.258Z,5.49
2022-11-25T08:16:19.482Z,5.49
2022-11-25T08:18:47.391Z,5.54
2022-11-25T08:21:16.684Z,5.55
2022-11-25T08:23:47.474Z,5.54
2022-11-25T08:26:20.031Z,5.56
2022-11-25T08:28:48.342Z,5.60
2022-11-25T08:31:18.933Z,5.69
2022-11-25T08:33:47.820Z,5.72
2022-11-25T08:36:16.471Z,5.65
2022-11-25T08:38:45.098Z,5.66
2022-11-25T08:41:14.991Z,5.70
2022-11-25T08:43:44.511Z,5.74
2022-11-25T08:46:14.502Z,5.74
2022-11-25T08:48:43.088Z,5.77
2022-11-25T08:51:13.262Z,5.82
2022-11-25T08:53:42.733Z,5.88
2022-11-25T08:56:11.381Z,5.89
2022-11-25T08:58:39.803Z,5.85
2022-11-25T09:01:09.049Z,5.95
2022-11-25T09:03:39.662Z,6.15
2022-11-25T09:06:09.577Z,6.29
2022-11-25T09:08:38.664Z,6.41
2022-11-25T09:11:07.430Z,6.44
2022-11-25T09:13:35.404Z,6.46
2022-11-25T09:16:03.503Z,6.44
2022-11-25T09:18:33.092Z,6.48
2022-11-25T09:21:01.091Z,6.51
2022-11-25T09:23:28.766Z,6.56
2022-11-25T09:25:58.642Z,6.57
2022-11-25T09:28:27.467Z,6.59
2022-11-25T09:30:55.224Z,6.61
2022-11-25T09:33:23.488Z,6.61
2022-11-25T09:35:53.046Z,6.54
2022-11-25T09:38:20.769Z,6.50
2022-11-25T09:40:56.681Z,6.53
2022-11-25T09:43:57.277Z,6.54
2022-11-25T09:46:42.988Z,6.57
2022-11-25T09:49:22.589Z,6.62
2022-11-25T09:51:58.010Z,6.72
2022-11-25T09:54:30.793Z,6.83
2022-11-25T09:57:13.830Z,6.94
2022-11-25T09:59:50.583Z,7.01
2022-11-25T10:02:25.163Z,7.09
2022-11-25T10:04:56.272Z,7.25
2022-11-25T10:07:33.156Z,7.24
2022-11-25T10:10:03.929Z,7.26
2022-11-25T10:12:35.885Z,7.25
2022-11-25T10:15:08.041Z,7.23
2022-11-25T10:17:44.219Z,7.21
2022-11-25T10:20:20.496Z,7.25
2022-11-25T10:22:52.872Z,7.13
2022-11-25T10:25:24.773Z,7.07
2022-11-25T10:27:58.284Z,7.04
2022-11-25T10:30:28.155Z,7.04
2022-11-25T10:33:06.080Z,7.00
2022-11-25T10:35:39.126Z,7.03
2022-11-25T10:38:18.963Z,7.04
2022-11-25T10:40:49.478Z,6.99
2022-11-25T10:43:17.409Z,7.04
2022-11-25T10:45:49.847Z,7.20
2022-11-25T10:48:33.076Z,7.11
2022-11-25T10:51:15.566Z,7.09
2022-11-25T10:54:16.337Z,7.12
2022-11-25T10:56:47.048Z,7.21
2022-11-25T10:59:22.311Z,7.24
2022-11-25T11:01:51.131Z,7.37
2022-11-25T11:04:19.470Z,7.32
2022-11-25T11:06:49.812Z,7.31
2022-11-25T11:09:35.181Z,7.36
2022-11-25T11:12:17.248Z,7.42
2022-11-25T11:14:45.386Z,7.40
2022-11-25T11:17:36.333Z,7.45
2022-11-25T11:20:22.319Z,7.43
2022-11-25T11:22:55.996Z,7.43
2022-11-25T11:25:30.307Z,7.42
2022-11-25T11:27:58.368Z,7.47
2022-11-25T11:30:28.431Z,7.64
2022-11-25T11:33:00.159Z,7.85
2022-11-25T11:35:41.816Z,7.90
2022-11-25T11:38:28.781Z,8.10
2022-11-25T11:41:06.591Z,8.37
2022-11-25T11:44:07.616Z,8.77
2022-11-25T11:46:51.605Z,9.10
2022-11-25T11:49:41.979Z,9.18
2022-11-25T11:52:17.770Z,9.18
2022-11-25T11:54:47.736Z,9.07
2022-11-25T11:57:29.413Z,9.02
2022-11-25T11:59:59.595Z,9.06
2022-11-25T12:02:36.501Z,9.07
2022-11-25T12:05:15.158Z,9.07
2022-11-25T12:07:49.888Z,9.09
2022-11-25T12:10:23.660Z,9.17
2022-11-25T12:12:56.627Z,9.17
2022-11-25T12:15:35.062Z,9.14
2022-11-25T12:18:05.954Z,9.09
2022-11-25T12:20:39.749Z,9.05
2022-11-25T12:23:14.267Z,9.11
2022-11-25T12:25:43.907Z,9.21
2022-11-25T12:28:18.178Z,9.31
2022-11-25T12:31:03.360Z,9.46
2022-11-25T12:33:44.861Z,9.43
2022-11-25T12:36:18.903Z,9.47
2022-11-25T12:38:48.638Z,9.37
2022-11-25T12:41:26.242Z,9.34
2022-11-25T12:44:01.816Z,9.24
2022-11-25T12:46:37.721Z,9.22
2022-11-25T12:49:09.447Z,9.28
2022-11-25T12:52:09.481Z,9.33
2022-11-25T12:54:54.209Z,9.45
2022-11-25T12:58:02.034Z,9.60
2022-11-25T13:00:48.142Z,9.65
2022-11-25T13:03:40.852Z,9.74
2022-11-25T13:06:31.094Z,9.80
2022-11-25T13:09:04.801Z,9.79
2022-11-25T13:11:58.451Z,9.72
2022-11-25T13:14:33.022Z,9.66
2022-11-25T13:17:03.440Z,9.56
2022-11-25T13:19:36.828Z,9.46
2022-11-25T13:22:06.400Z,9.36
2022-11-25T13:24:39.297Z,9.48
2022-11-25T13:27:07.504Z,9.40
2022-11-25T13:30:03.296Z,9.39
2022-11-25T13:32:38.999Z,9.31
2022-11-25T13:35:40.167Z,9.36
2022-11-25T13:38:23.494Z,9.32
2022-11-25T13:40:58.212Z,9.30
2022-11-25T13:43:26.080Z,9.27
2022-11-25T13:45:54.335Z,9.30
2022-11-25T13:48:27.101Z,9.26
2022-11-25T13:51:16.304Z,9.23
2022-11-25T13:53:53.254Z,9.20
2022-11-25T13:56:28.640Z,9.13
2022-11-25T13:59:35.219Z,9.17
2022-11-25T14:02:44.760Z,9.23
2022-11-25T14:05:43.863Z,9.25
2022-11-25T14:08:21.216Z,9.31
2022-11-25T14:11:01.251Z,9.27
2022-11-25T14:13:52.054Z,9.25
2022-11-25T14:16:41.191Z,9.22
2022-11-25T14:22:40.170Z,9.26
2022-11-25T14:25:20.159Z,9.28
2022-11-25T14:27:51.415Z,9.31
2022-11-25T14:30:20.718Z,9.34
2022-11-25T14:32:57.827Z,9.40
2022-11-25T14:35:31.415Z,9.47
2022-11-25T14:38:05.555Z,9.48
2022-11-25T14:40:39.473Z,9.41
2022-11-25T14:43:16.105Z,9.36
2022-11-25T14:45:44.348Z,9.24
2022-11-25T14:48:16.366Z,9.17
2022-11-25T14:50:55.988Z,9.08
2022-11-25T14:53:26.816Z,8.99
2022-11-25T14:55:54.942Z,8.93
2022-11-25T14:58:23.087Z,8.86
2022-11-25T15:00:52.913Z,8.78
2022-11-25T15:03:21.603Z,8.73
2022-11-25T15:05:57.004Z,8.72
2022-11-25T15:08:26.791Z,8.79
2022-11-25T15:10:56.538Z,8.75
2022-11-25T15:13:34.710Z,8.70
2022-11-25T15:16:09.303Z,8.63
2022-11-25T15:18:39.238Z,8.57
2022-11-25T15:21:07.603Z,8.53
2022-11-25T15:23:38.975Z,8.50
2022-11-25T15:26:19.021Z,8.55
2022-11-25T15:28:47.299Z,8.60
2022-11-25T15:31:21.036Z,8.71
2022-11-25T15:33:54.883Z,8.70
2022-11-25T15:36:23.906Z,8.77
2022-11-25T15:38:53.626Z,8.77
2022-11-25T15:41:33.255Z,8.75
2022-11-25T15:44:02.874Z,8.69
2022-11-25T15:46:34.310Z,8.62
2022-11-25T15:49:05.779Z,8.55
2022-11-25T15:51:39.208Z,8.43
2022-11-25T15:54:18.445Z,8.35
2022-11-25T15:56:50.128Z,8.37
2022-11-25T15:59:41.128Z,8.39
2022-11-25T16:02:35.591Z,8.38
2022-11-25T16:05:24.293Z,8.38
2022-11-25T16:08:02.919Z,8.37
2022-11-25T16:10:34.639Z,8.36
2022-11-25T16:13:34.372Z,8.38
2022-11-25T16:16:22.575Z,8.32
2022-11-25T16:18:59.080Z,8.31
2022-11-25T16:21:30.530Z,8.30
2022-11-25T16:24:10.427Z,8.27
2022-11-25T16:26:49.509Z,8.27
2022-11-25T16:29:20.082Z,8.26
2022-11-25T16:31:48.199Z,8.25
2022-11-25T16:34:18.218Z,8.24
2022-11-25T16:36:45.990Z,8.25
2022-11-25T16:39:14.217Z,8.24
2022-11-25T16:41:46.148Z,8.22
2022-11-25T16:44:21.233Z,8.21
2022-11-25T16:46:49.728Z,8.15
2022-11-25T16:49:19.301Z,8.16
2022-11-25T16:51:47.137Z,8.11
2022-11-25T16:54:14.964Z,8.03
2022-11-25T16:56:45.344Z,7.98
2022-11-25T16:59:17.933Z,7.92
2022-11-25T17:01:46.593Z,7.87
2022-11-25T17:04:15.546Z,7.82
2022-11-25T17:06:50.500Z,7.81
2022-11-25T17:09:32.933Z,7.79
2022-11-25T17:12:02.441Z,7.81
2022-11-25T17:14:32.923Z,7.82
2022-11-25T17:17:01.843Z,7.87
2022-11-25T17:19:30.356Z,7.85
2022-11-25T17:21:58.679Z,7.85
2022-11-25T17:24:27.123Z,7.84
2022-11-25T17:26:57.920Z,7.88
2022-11-25T17:29:32.877Z,7.92
2022-11-25T17:32:01.139Z,8.00
2022-11-25T17:34:28.933Z,8.01
2022-11-25T17:36:57.717Z,8.04
2022-11-25T17:39:25.724Z,8.06
2022-11-25T17:41:53.462Z,8.07
2022-11-25T17:44:25.895Z,8.10
2022-11-25T17:46:58.213Z,8.12
2022-11-25T17:49:26.883Z,8.11
2022-11-25T17:51:54.717Z,8.12
2022-11-25T17:54:22.947Z,8.16
2022-11-25T17:56:52.567Z,8.17
2022-11-25T17:59:25.497Z,8.16
2022-11-25T18:01:55.991Z,8.10
2022-11-25T18:04:25.222Z,8.07
2022-11-25T18:06:53.557Z,8.01
2022-11-25T18:09:21.451Z,8.01
2022-11-25T18:11:53.026Z,7.98
2022-11-25T18:14:26.254Z,7.97
2022-11-25T18:16:56.399Z,7.94
2022-11-25T18:19:24.512Z,7.98
2022-11-25T18:21:52.757Z,8.03
2022-11-25T18:24:20.449Z,8.15
2022-11-25T18:26:50.898Z,8.22
2022-11-25T18:29:22.929Z,8.28
2022-11-25T18:31:51.367Z,8.24
2022-11-25T18:34:20.728Z,8.25
2022-11-25T18:36:48.701Z,8.28
2022-11-25T18:39:16.333Z,8.25
2022-11-25T18:41:45.561Z,8.18
2022-11-25T18:44:25.852Z,8.11
2022-11-25T18:46:54.940Z,8.06
2022-11-25T18:49:24.780Z,8.02
2022-11-25T18:51:52.523Z,8.02
2022-11-25T18:54:20.161Z,8.02
2022-11-25T18:56:52.029Z,8.07
2022-11-25T18:59:28.980Z,8.18
2022-11-25T19:01:56.838Z,8.19
2022-11-25T19:04:26.024Z,8.19
2022-11-25T19:06:53.899Z,8.21
2022-11-25T19:09:21.547Z,8.21
2022-11-25T19:11:53.437Z,8.18
2022-11-25T19:14:29.051Z,8.20
2022-11-25T19:16:59.874Z,8.37
2022-11-25T19:19:29.586Z,8.41
2022-11-25T19:22:02.095Z,8.40
2022-11-25T19:24:30.944Z,8.31
2022-11-25T19:26:58.967Z,8.31
2022-11-25T19:29:33.840Z,8.38
2022-11-25T19:32:05.183Z,8.47
2022-11-25T19:34:38.660Z,8.59
2022-11-25T19:37:06.661Z,8.59
2022-11-25T19:39:37.501Z,8.53
2022-11-25T19:42:05.397Z,8.58
2022-11-25T19:44:33.341Z,8.58
2022-11-25T19:47:15.126Z,8.59
2022-11-25T19:49:46.146Z,8.54
2022-11-25T19:52:17.068Z,8.55
2022-11-25T19:54:45.156Z,8.56
2022-11-25T19:57:17.557Z,8.51
2022-11-25T19:59:46.558Z,8.54
2022-11-25T20:02:16.866Z,8.48
2022-11-25T20:04:48.144Z,8.43
2022-11-25T20:07:19.277Z,8.34
2022-11-25T20:09:48.390Z,8.25
2022-11-25T20:12:22.113Z,8.27
2022-11-25T20:14:50.634Z,8.21
2022-11-25T20:17:25.489Z,8.24
2022-11-25T20:19:57.154Z,8.29
2022-11-25T20:22:29.359Z,8.24
2022-11-25T20:24:59.761Z,8.25
2022-11-25T20:27:28.916Z,8.19
2022-11-25T20:29:57.433Z,8.27
2022-11-25T20:32:29.474Z,8.30
2022-11-25T20:35:01.175Z,8.28
2022-11-25T20:37:40.465Z,8.35
2022-11-25T20:40:17.601Z,8.28
2022-11-25T20:42:46.601Z,8.22
2022-11-25T20:45:16.468Z,8.19
2022-11-25T20:47:44.804Z,8.21
2022-11-25T20:50:17.170Z,8.32
2022-11-25T20:52:46.877Z,8.26
2022-11-25T20:55:20.731Z,8.29
2022-11-25T20:57:50.622Z,8.36
2022-11-25T21:00:24.147Z,8.32
2022-11-25T21:02:52.445Z,8.30
2022-11-25T21:05:22.518Z,8.21
2022-11-25T21:07:51.810Z,8.12
2022-11-25T21:10:26.526Z,8.19
2022-11-25T21:12:55.002Z,8.10
2022-11-25T21:15:25.425Z,8.10
2022-11-25T21:17:53.407Z,7.98
2022-11-25T21:20:22.580Z,7.80
2022-11-25T21:22:55.013Z,7.65
2022-11-25T21:25:24.033Z,7.49
2022-11-25T21:27:53.212Z,7.32
2022-11-25T21:30:24.027Z,7.24
2022-11-25T21:32:54.563Z,7.16
2022-11-25T21:35:26.012Z,7.12
2022-11-25T21:37:54.046Z,6.99
2022-11-25T21:40:33.027Z,6.89
2022-11-25T21:43:01.442Z,6.84
2022-11-25T21:45:29.290Z,6.82
2022-11-25T21:47:57.028Z,6.77
2022-11-25T21:50:29.497Z,6.75
2022-11-25T21:52:57.652Z,6.74
2022-11-25T21:55:26.274Z,6.75
2022-11-25T21:57:54.210Z,6.77
2022-11-25T22:00:24.711Z,6.71
2022-11-25T22:02:53.201Z,6.61
2022-11-25T22:05:25.374Z,6.56
2022-11-25T22:07:55.034Z,6.52
2022-11-25T22:10:23.682Z,6.48
2022-11-25T22:12:51.765Z,6.44
2022-11-25T22:15:22.107Z,6.38
2022-11-25T22:17:54.250Z,6.37
2022-11-25T22:20:28.880Z,6.36
2022-11-25T22:22:58.025Z,6.34
2022-11-25T22:25:27.730Z,6.35
2022-11-25T22:27:55.506Z,6.29
2022-11-25T22:30:24.837Z,6.25
2022-11-25T22:33:00.844Z,6.23
2022-11-25T22:35:29.234Z,6.02
2022-11-25T22:37:58.432Z,5.96
2022-11-25T22:40:26.413Z,5.71
2022-11-25T22:42:57.023Z,5.69
2022-11-25T22:45:30.449Z,5.66
2022-11-25T22:47:59.366Z,5.69
2022-11-25T22:50:29.709Z,5.74
2022-11-25T22:53:00.369Z,5.85
2022-11-25T22:55:29.887Z,5.86
2022-11-25T22:58:00.167Z,5.88
2022-11-25T23:00:29.494Z,5.86
2022-11-25T23:02:59.223Z,5.83
2022-11-25T23:05:32.497Z,5.75
2022-11-25T23:08:03.217Z,5.73
2022-11-25T23:10:32.892Z,5.73
2022-11-25T23:13:00.811Z,5.70
2022-11-25T23:15:28.640Z,5.60
2022-11-25T23:17:58.442Z,5.57
2022-11-25T23:20:30.268Z,5.56
2022-11-25T23:22:59.127Z,5.50
2022-11-25T23:25:28.242Z,5.44
2022-11-25T23:27:55.975Z,5.48
2022-11-25T23:30:24.619Z,5.56
2022-11-25T23:32:54.447Z,5.57
2022-11-25T23:35:28.423Z,5.61
2022-11-25T23:37:57.748Z,5.60
2022-11-25T23:40:28.605Z,5.55
2022-11-25T23:42:57.422Z,5.51
2022-11-25T23:45:27.516Z,5.51
2022-11-25T23:47:57.209Z,5.52
2022-11-25T23:50:29.170Z,5.57
2022-11-25T23:53:00.896Z,5.54
2022-11-25T23:55:32.138Z,5.51
2022-11-25T23:58:01.643Z,5.55
